KDMN/DMN METAR and TAF weather

Enter ICAO airport designator
Station Type Date Time Source
KDMN METAR 2018/01/22 19:53 UTC NOAA

KDMN 221953Z AUTO VRB06KT 10SM CLR 09/M16 A3020 RMK AO2 SLP215 T00891156


Station Type Date Time Source
KDMN Decoded METAR 2018/01/22 19:53 UTC NOAA

DEMING MUNICIPAL AIRPORT, NM, United States (KDMN) 32-16N 107-43W 1311M
Jan 22, 2018 - 02:53 PM EST / 2018.01.22 1953 UTC
Wind: Variable at 7 MPH (6 KT):0
Visibility: 10 mile(s):0
Sky conditions: clear
Temperature: 48.0 F (8.9 C)
Dew Point: 3.9 F (-15.6 C)
Relative Humidity: 15%
Pressure (altimeter): 30.2 in. Hg (1022 hPa)
ob: KDMN 221953Z AUTO VRB06KT 10SM CLR 09/M16 A3020 RMK AO2 SLP215 T00891156
cycle: 20

Station Type Date Time Source
KDMN TAF 2018/01/22 18:24 UTC NOAA

TAF KDMN 221720Z 2218/2318 10006KT P6SM BKN200
FM230200 04006KT P6SM FEW120 SCT200


Example: see airport list